sensor_id;sensor_type;location;lat;lon;timestamp;P1;durP1;ratioP1;P2;durP2;ratioP2
81934;SDS011;71405;47.674;-2.050;2024-03-08T00:01:09;5.53;;;2.50;;
81934;SDS011;71405;47.674;-2.050;2024-03-08T00:03:35;5.15;;;2.33;;
81934;SDS011;71405;47.674;-2.050;2024-03-08T00:06:00;6.18;;;2.13;;
81934;SDS011;71405;47.674;-2.050;2024-03-08T00:08:27;5.18;;;2.15;;
81934;SDS011;71405;47.674;-2.050;2024-03-08T00:10:52;6.05;;;2.28;;
81934;SDS011;71405;47.674;-2.050;2024-03-08T00:13:19;6.18;;;2.38;;
81934;SDS011;71405;47.674;-2.050;2024-03-08T00:15:44;4.53;;;2.03;;
81934;SDS011;71405;47.674;-2.050;2024-03-08T00:18:10;5.18;;;2.20;;
81934;SDS011;71405;47.674;-2.050;2024-03-08T00:20:36;5.47;;;2.30;;
81934;SDS011;71405;47.674;-2.050;2024-03-08T00:23:02;5.65;;;2.17;;
81934;SDS011;71405;47.674;-2.050;2024-03-08T00:25:28;5.45;;;1.88;;
81934;SDS011;71405;47.674;-2.050;2024-03-08T00:27:53;3.97;;;1.90;;
81934;SDS011;71405;47.674;-2.050;2024-03-08T00:30:22;5.32;;;2.00;;
81934;SDS011;71405;47.674;-2.050;2024-03-08T00:32:48;5.10;;;2.13;;
81934;SDS011;71405;47.674;-2.050;2024-03-08T00:35:14;5.72;;;2.35;;
81934;SDS011;71405;47.674;-2.050;2024-03-08T00:37:40;4.65;;;2.00;;
81934;SDS011;71405;47.674;-2.050;2024-03-08T00:40:07;5.15;;;1.90;;
81934;SDS011;71405;47.674;-2.050;2024-03-08T00:42:34;5.10;;;2.17;;
81934;SDS011;71405;47.674;-2.050;2024-03-08T00:45:00;5.35;;;2.28;;
81934;SDS011;71405;47.674;-2.050;2024-03-08T00:47:26;5.47;;;2.00;;
81934;SDS011;71405;47.674;-2.050;2024-03-08T00:49:52;4.72;;;1.88;;
81934;SDS011;71405;47.674;-2.050;2024-03-08T00:52:18;4.38;;;2.03;;
81934;SDS011;71405;47.674;-2.050;2024-03-08T00:54:44;3.67;;;1.75;;
81934;SDS011;71405;47.674;-2.050;2024-03-08T00:57:10;3.72;;;1.98;;
81934;SDS011;71405;47.674;-2.050;2024-03-08T00:59:37;4.65;;;1.95;;
81934;SDS011;71405;47.674;-2.050;2024-03-08T01:02:03;4.40;;;1.90;;
81934;SDS011;71405;47.674;-2.050;2024-03-08T01:04:29;5.35;;;2.10;;
81934;SDS011;71405;47.674;-2.050;2024-03-08T01:06:58;4.25;;;2.10;;
81934;SDS011;71405;47.674;-2.050;2024-03-08T01:09:24;3.28;;;1.77;;
81934;SDS011;71405;47.674;-2.050;2024-03-08T01:11:52;6.60;;;2.22;;
81934;SDS011;71405;47.674;-2.050;2024-03-08T01:14:19;4.47;;;1.77;;
81934;SDS011;71405;47.674;-2.050;2024-03-08T01:16:48;5.50;;;2.10;;
81934;SDS011;71405;47.674;-2.050;2024-03-08T01:19:14;5.13;;;2.03;;
81934;SDS011;71405;47.674;-2.050;2024-03-08T01:21:40;5.03;;;2.28;;
81934;SDS011;71405;47.674;-2.050;2024-03-08T01:24:07;4.78;;;1.80;;
81934;SDS011;71405;47.674;-2.050;2024-03-08T01:26:33;4.75;;;2.00;;
81934;SDS011;71405;47.674;-2.050;2024-03-08T01:29:01;4.35;;;1.73;;
81934;SDS011;71405;47.674;-2.050;2024-03-08T01:31:31;3.80;;;1.95;;
81934;SDS011;71405;47.674;-2.050;2024-03-08T01:33:57;4.82;;;2.00;;
81934;SDS011;71405;47.674;-2.050;2024-03-08T01:36:24;4.32;;;2.10;;
81934;SDS011;71405;47.674;-2.050;2024-03-08T01:38:50;4.60;;;2.13;;
81934;SDS011;71405;47.674;-2.050;2024-03-08T01:41:16;3.15;;;1.73;;
81934;SDS011;71405;47.674;-2.050;2024-03-08T01:43:43;4.47;;;2.13;;
81934;SDS011;71405;47.674;-2.050;2024-03-08T01:46:09;3.38;;;1.70;;
81934;SDS011;71405;47.674;-2.050;2024-03-08T01:48:36;5.47;;;2.22;;
81934;SDS011;71405;47.674;-2.050;2024-03-08T01:51:02;4.70;;;2.20;;
81934;SDS011;71405;47.674;-2.050;2024-03-08T01:53:28;4.47;;;2.00;;
81934;SDS011;71405;47.674;-2.050;2024-03-08T01:55:55;4.65;;;2.08;;
81934;SDS011;71405;47.674;-2.050;2024-03-08T01:58:23;4.43;;;2.10;;
81934;SDS011;71405;47.674;-2.050;2024-03-08T02:00:49;3.97;;;1.77;;
81934;SDS011;71405;47.674;-2.050;2024-03-08T02:03:15;4.40;;;2.10;;
81934;SDS011;71405;47.674;-2.050;2024-03-08T02:05:41;5.10;;;2.03;;
81934;SDS011;71405;47.674;-2.050;2024-03-08T02:08:07;4.68;;;2.22;;
81934;SDS011;71405;47.674;-2.050;2024-03-08T02:10:37;4.38;;;2.20;;
81934;SDS011;71405;47.674;-2.050;2024-03-08T02:13:04;4.15;;;2.00;;
81934;SDS011;71405;47.674;-2.050;2024-03-08T02:18:18;4.70;;;2.05;;
81934;SDS011;71405;47.674;-2.050;2024-03-08T02:20:47;4.85;;;2.30;;
81934;SDS011;71405;47.674;-2.050;2024-03-08T02:23:32;4.55;;;2.08;;
81934;SDS011;71405;47.674;-2.050;2024-03-08T02:25:58;5.63;;;2.25;;
81934;SDS011;71405;47.674;-2.050;2024-03-08T02:28:24;4.10;;;2.08;;
81934;SDS011;71405;47.674;-2.050;2024-03-08T02:30:50;4.70;;;2.00;;
81934;SDS011;71405;47.674;-2.050;2024-03-08T02:33:19;4.40;;;2.30;;
81934;SDS011;71405;47.674;-2.050;2024-03-08T02:35:45;3.58;;;2.15;;
81934;SDS011;71405;47.674;-2.050;2024-03-08T02:38:15;5.38;;;2.17;;
81934;SDS011;71405;47.674;-2.050;2024-03-08T02:40:43;3.95;;;1.88;;
81934;SDS011;71405;47.674;-2.050;2024-03-08T02:43:10;3.67;;;1.88;;
81934;SDS011;71405;47.674;-2.050;2024-03-08T02:45:36;3.53;;;1.90;;
81934;SDS011;71405;47.674;-2.050;2024-03-08T02:48:02;4.90;;;2.00;;
81934;SDS011;71405;47.674;-2.050;2024-03-08T02:50:28;4.10;;;1.88;;
81934;SDS011;71405;47.674;-2.050;2024-03-08T02:52:54;4.38;;;1.83;;
81934;SDS011;71405;47.674;-2.050;2024-03-08T02:55:19;5.25;;;2.20;;
81934;SDS011;71405;47.674;-2.050;2024-03-08T02:57:45;4.35;;;2.10;;
81934;SDS011;71405;47.674;-2.050;2024-03-08T03:00:14;4.00;;;1.77;;
81934;SDS011;71405;47.674;-2.050;2024-03-08T03:02:41;4.40;;;2.05;;
81934;SDS011;71405;47.674;-2.050;2024-03-08T03:05:07;4.05;;;2.05;;
81934;SDS011;71405;47.674;-2.050;2024-03-08T03:07:35;4.75;;;2.10;;
81934;SDS011;71405;47.674;-2.050;2024-03-08T03:10:00;4.03;;;1.80;;
81934;SDS011;71405;47.674;-2.050;2024-03-08T03:12:27;3.10;;;1.63;;
81934;SDS011;71405;47.674;-2.050;2024-03-08T03:14:53;4.03;;;1.83;;
81934;SDS011;71405;47.674;-2.050;2024-03-08T03:17:19;5.38;;;2.13;;
81934;SDS011;71405;47.674;-2.050;2024-03-08T03:19:45;3.30;;;1.65;;
81934;SDS011;71405;47.674;-2.050;2024-03-08T03:22:11;4.90;;;2.08;;
81934;SDS011;71405;47.674;-2.050;2024-03-08T03:24:37;4.22;;;2.00;;
81934;SDS011;71405;47.674;-2.050;2024-03-08T03:27:04;4.75;;;2.05;;
81934;SDS011;71405;47.674;-2.050;2024-03-08T03:29:39;4.10;;;2.10;;
81934;SDS011;71405;47.674;-2.050;2024-03-08T03:32:07;3.75;;;1.83;;
81934;SDS011;71405;47.674;-2.050;2024-03-08T03:34:33;4.63;;;1.90;;
81934;SDS011;71405;47.674;-2.050;2024-03-08T03:37:02;4.30;;;1.83;;
81934;SDS011;71405;47.674;-2.050;2024-03-08T03:39:37;3.92;;;1.90;;
81934;SDS011;71405;47.674;-2.050;2024-03-08T03:42:14;3.70;;;2.00;;
81934;SDS011;71405;47.674;-2.050;2024-03-08T03:44:46;4.15;;;1.83;;
81934;SDS011;71405;47.674;-2.050;2024-03-08T03:47:13;4.45;;;2.05;;
81934;SDS011;71405;47.674;-2.050;2024-03-08T03:49:40;4.18;;;1.98;;
81934;SDS011;71405;47.674;-2.050;2024-03-08T03:52:06;3.53;;;2.00;;
81934;SDS011;71405;47.674;-2.050;2024-03-08T03:54:31;4.82;;;2.08;;
81934;SDS011;71405;47.674;-2.050;2024-03-08T03:56:58;4.30;;;2.10;;
81934;SDS011;71405;47.674;-2.050;2024-03-08T03:59:24;3.90;;;2.05;;
81934;SDS011;71405;47.674;-2.050;2024-03-08T04:01:49;4.68;;;1.90;;
81934;SDS011;71405;47.674;-2.050;2024-03-08T04:04:15;4.90;;;2.10;;
81934;SDS011;71405;47.674;-2.050;2024-03-08T04:06:41;4.25;;;2.05;;
81934;SDS011;71405;47.674;-2.050;2024-03-08T04:09:07;3.97;;;1.70;;
81934;SDS011;71405;47.674;-2.050;2024-03-08T04:11:33;4.72;;;2.10;;
81934;SDS011;71405;47.674;-2.050;2024-03-08T04:13:59;4.22;;;2.03;;
81934;SDS011;71405;47.674;-2.050;2024-03-08T04:16:24;4.28;;;2.15;;
81934;SDS011;71405;47.674;-2.050;2024-03-08T04:18:51;4.32;;;1.98;;
81934;SDS011;71405;47.674;-2.050;2024-03-08T04:21:17;4.13;;;1.95;;
81934;SDS011;71405;47.674;-2.050;2024-03-08T04:23:44;3.70;;;1.88;;
81934;SDS011;71405;47.674;-2.050;2024-03-08T04:26:10;3.03;;;1.80;;
81934;SDS011;71405;47.674;-2.050;2024-03-08T04:28:36;4.47;;;2.10;;
81934;SDS011;71405;47.674;-2.050;2024-03-08T04:31:02;5.03;;;2.47;;
81934;SDS011;71405;47.674;-2.050;2024-03-08T04:33:29;4.68;;;2.08;;
81934;SDS011;71405;47.674;-2.050;2024-03-08T04:35:54;4.35;;;2.42;;
81934;SDS011;71405;47.674;-2.050;2024-03-08T04:38:20;4.45;;;2.10;;
81934;SDS011;71405;47.674;-2.050;2024-03-08T04:40:47;4.07;;;1.98;;
81934;SDS011;71405;47.674;-2.050;2024-03-08T04:43:13;4.90;;;1.90;;
81934;SDS011;71405;47.674;-2.050;2024-03-08T04:45:39;4.85;;;2.13;;
81934;SDS011;71405;47.674;-2.050;2024-03-08T04:48:08;3.70;;;1.98;;
81934;SDS011;71405;47.674;-2.050;2024-03-08T04:50:34;4.38;;;2.17;;
81934;SDS011;71405;47.674;-2.050;2024-03-08T04:53:00;4.47;;;2.20;;
81934;SDS011;71405;47.674;-2.050;2024-03-08T04:55:26;4.05;;;1.80;;
81934;SDS011;71405;47.674;-2.050;2024-03-08T04:57:51;4.53;;;2.10;;
81934;SDS011;71405;47.674;-2.050;2024-03-08T05:00:18;3.22;;;1.80;;
81934;SDS011;71405;47.674;-2.050;2024-03-08T05:02:44;4.03;;;2.00;;
81934;SDS011;71405;47.674;-2.050;2024-03-08T05:05:10;4.30;;;2.00;;
81934;SDS011;71405;47.674;-2.050;2024-03-08T05:07:39;5.47;;;2.28;;
81934;SDS011;71405;47.674;-2.050;2024-03-08T05:10:05;4.57;;;2.10;;
81934;SDS011;71405;47.674;-2.050;2024-03-08T05:12:32;4.78;;;2.00;;
81934;SDS011;71405;47.674;-2.050;2024-03-08T05:14:58;4.68;;;2.08;;
81934;SDS011;71405;47.674;-2.050;2024-03-08T05:17:23;5.03;;;2.20;;
81934;SDS011;71405;47.674;-2.050;2024-03-08T05:19:49;4.75;;;2.10;;
81934;SDS011;71405;47.674;-2.050;2024-03-08T05:22:16;5.80;;;2.30;;
81934;SDS011;71405;47.674;-2.050;2024-03-08T05:24:42;4.40;;;2.00;;
81934;SDS011;71405;47.674;-2.050;2024-03-08T05:27:08;4.00;;;1.70;;
81934;SDS011;71405;47.674;-2.050;2024-03-08T05:29:34;4.07;;;2.00;;
81934;SDS011;71405;47.674;-2.050;2024-03-08T05:31:59;3.85;;;2.08;;
81934;SDS011;71405;47.674;-2.050;2024-03-08T05:34:26;4.20;;;2.00;;
81934;SDS011;71405;47.674;-2.050;2024-03-08T05:36:53;4.20;;;2.00;;
81934;SDS011;71405;47.674;-2.050;2024-03-08T05:39:19;4.63;;;2.20;;
81934;SDS011;71405;47.674;-2.050;2024-03-08T05:41:45;4.28;;;1.90;;
81934;SDS011;71405;47.674;-2.050;2024-03-08T05:44:11;4.43;;;1.92;;
81934;SDS011;71405;47.674;-2.050;2024-03-08T05:46:38;4.43;;;2.00;;
81934;SDS011;71405;47.674;-2.050;2024-03-08T05:49:04;4.20;;;2.00;;
81934;SDS011;71405;47.674;-2.050;2024-03-08T05:51:34;4.10;;;1.75;;
81934;SDS011;71405;47.674;-2.050;2024-03-08T05:54:01;4.38;;;2.15;;
81934;SDS011;71405;47.674;-2.050;2024-03-08T05:56:31;4.25;;;1.90;;
81934;SDS011;71405;47.674;-2.050;2024-03-08T05:58:57;4.57;;;2.25;;
81934;SDS011;71405;47.674;-2.050;2024-03-08T06:01:25;5.55;;;2.42;;
81934;SDS011;71405;47.674;-2.050;2024-03-08T06:03:54;6.57;;;2.28;;
81934;SDS011;71405;47.674;-2.050;2024-03-08T06:06:24;4.00;;;1.80;;
81934;SDS011;71405;47.674;-2.050;2024-03-08T06:08:50;3.97;;;1.92;;
81934;SDS011;71405;47.674;-2.050;2024-03-08T06:11:16;4.97;;;2.03;;
81934;SDS011;71405;47.674;-2.050;2024-03-08T06:13:44;4.93;;;2.25;;
81934;SDS011;71405;47.674;-2.050;2024-03-08T06:16:10;4.88;;;2.30;;
81934;SDS011;71405;47.674;-2.050;2024-03-08T06:18:36;5.53;;;2.22;;
81934;SDS011;71405;47.674;-2.050;2024-03-08T06:21:05;7.28;;;2.45;;
81934;SDS011;71405;47.674;-2.050;2024-03-08T06:23:32;5.28;;;2.30;;
81934;SDS011;71405;47.674;-2.050;2024-03-08T06:25:58;6.18;;;2.45;;
81934;SDS011;71405;47.674;-2.050;2024-03-08T06:28:24;5.63;;;2.20;;
81934;SDS011;71405;47.674;-2.050;2024-03-08T06:30:50;6.18;;;2.60;;
81934;SDS011;71405;47.674;-2.050;2024-03-08T06:33:16;6.65;;;2.67;;
81934;SDS011;71405;47.674;-2.050;2024-03-08T06:35:42;10.77;;;3.22;;
81934;SDS011;71405;47.674;-2.050;2024-03-08T06:38:08;6.45;;;2.58;;
81934;SDS011;71405;47.674;-2.050;2024-03-08T06:40:34;5.35;;;2.30;;
81934;SDS011;71405;47.674;-2.050;2024-03-08T06:43:00;6.35;;;2.13;;
81934;SDS011;71405;47.674;-2.050;2024-03-08T06:45:25;9.00;;;3.10;;
81934;SDS011;71405;47.674;-2.050;2024-03-08T06:47:51;6.60;;;2.30;;
81934;SDS011;71405;47.674;-2.050;2024-03-08T06:50:17;6.75;;;2.97;;
81934;SDS011;71405;47.674;-2.050;2024-03-08T06:52:43;8.05;;;2.83;;
81934;SDS011;71405;47.674;-2.050;2024-03-08T06:55:09;6.38;;;2.60;;
81934;SDS011;71405;47.674;-2.050;2024-03-08T06:57:41;7.13;;;3.50;;
81934;SDS011;71405;47.674;-2.050;2024-03-08T07:00:07;5.97;;;3.20;;
81934;SDS011;71405;47.674;-2.050;2024-03-08T07:02:40;6.35;;;3.05;;
81934;SDS011;71405;47.674;-2.050;2024-03-08T07:05:07;33.88;;;10.40;;
81934;SDS011;71405;47.674;-2.050;2024-03-08T07:07:35;7.75;;;3.53;;
81934;SDS011;71405;47.674;-2.050;2024-03-08T07:10:01;9.25;;;4.13;;
81934;SDS011;71405;47.674;-2.050;2024-03-08T07:12:27;7.60;;;4.00;;
81934;SDS011;71405;47.674;-2.050;2024-03-08T07:14:52;6.85;;;3.42;;
81934;SDS011;71405;47.674;-2.050;2024-03-08T07:17:18;7.45;;;3.40;;
81934;SDS011;71405;47.674;-2.050;2024-03-08T07:19:44;8.07;;;3.60;;
81934;SDS011;71405;47.674;-2.050;2024-03-08T07:22:10;7.68;;;3.75;;
81934;SDS011;71405;47.674;-2.050;2024-03-08T07:24:36;12.57;;;4.28;;
81934;SDS011;71405;47.674;-2.050;2024-03-08T07:27:03;10.98;;;4.10;;
81934;SDS011;71405;47.674;-2.050;2024-03-08T07:29:30;14.27;;;4.35;;
81934;SDS011;71405;47.674;-2.050;2024-03-08T07:31:56;11.10;;;4.45;;
81934;SDS011;71405;47.674;-2.050;2024-03-08T07:36:57;12.40;;;4.60;;
81934;SDS011;71405;47.674;-2.050;2024-03-08T07:39:25;9.85;;;4.95;;
81934;SDS011;71405;47.674;-2.050;2024-03-08T07:41:50;11.73;;;4.60;;
81934;SDS011;71405;47.674;-2.050;2024-03-08T07:44:18;10.10;;;4.25;;
81934;SDS011;71405;47.674;-2.050;2024-03-08T07:46:44;10.15;;;3.80;;
81934;SDS011;71405;47.674;-2.050;2024-03-08T07:49:09;10.55;;;3.70;;
81934;SDS011;71405;47.674;-2.050;2024-03-08T07:51:37;10.55;;;4.35;;
81934;SDS011;71405;47.674;-2.050;2024-03-08T07:54:03;10.32;;;4.00;;
81934;SDS011;71405;47.674;-2.050;2024-03-08T07:56:29;8.50;;;3.72;;
81934;SDS011;71405;47.674;-2.050;2024-03-08T07:58:55;10.82;;;4.03;;
81934;SDS011;71405;47.674;-2.050;2024-03-08T08:01:21;13.00;;;4.43;;
81934;SDS011;71405;47.674;-2.050;2024-03-08T08:03:47;10.75;;;3.70;;
81934;SDS011;71405;47.674;-2.050;2024-03-08T08:06:16;9.32;;;3.72;;
81934;SDS011;71405;47.674;-2.050;2024-03-08T08:08:42;10.60;;;3.97;;
81934;SDS011;71405;47.674;-2.050;2024-03-08T08:11:08;7.93;;;3.88;;
81934;SDS011;71405;47.674;-2.050;2024-03-08T08:13:34;10.27;;;4.38;;
81934;SDS011;71405;47.674;-2.050;2024-03-08T08:16:01;8.90;;;4.18;;
81934;SDS011;71405;47.674;-2.050;2024-03-08T08:18:27;8.48;;;3.90;;
81934;SDS011;71405;47.674;-2.050;2024-03-08T08:20:54;10.88;;;4.70;;
81934;SDS011;71405;47.674;-2.050;2024-03-08T08:23:20;9.13;;;3.60;;
81934;SDS011;71405;47.674;-2.050;2024-03-08T08:25:46;8.13;;;3.53;;
81934;SDS011;71405;47.674;-2.050;2024-03-08T08:28:15;9.32;;;3.63;;
81934;SDS011;71405;47.674;-2.050;2024-03-08T08:30:43;7.85;;;3.50;;
81934;SDS011;71405;47.674;-2.050;2024-03-08T08:33:09;8.98;;;3.60;;
81934;SDS011;71405;47.674;-2.050;2024-03-08T08:35:35;8.48;;;3.33;;
81934;SDS011;71405;47.674;-2.050;2024-03-08T08:38:04;8.90;;;3.20;;
81934;SDS011;71405;47.674;-2.050;2024-03-08T08:40:30;9.55;;;3.50;;
81934;SDS011;71405;47.674;-2.050;2024-03-08T08:42:57;8.32;;;3.53;;
81934;SDS011;71405;47.674;-2.050;2024-03-08T08:45:23;8.75;;;4.32;;
81934;SDS011;71405;47.674;-2.050;2024-03-08T08:47:49;7.93;;;3.85;;
81934;SDS011;71405;47.674;-2.050;2024-03-08T08:50:15;7.32;;;3.65;;
81934;SDS011;71405;47.674;-2.050;2024-03-08T08:52:41;8.32;;;3.55;;
81934;SDS011;71405;47.674;-2.050;2024-03-08T08:55:08;7.78;;;3.72;;
81934;SDS011;71405;47.674;-2.050;2024-03-08T08:57:39;9.00;;;3.92;;
81934;SDS011;71405;47.674;-2.050;2024-03-08T09:00:05;8.00;;;3.90;;
81934;SDS011;71405;47.674;-2.050;2024-03-08T09:02:33;8.25;;;3.78;;
81934;SDS011;71405;47.674;-2.050;2024-03-08T09:04:59;8.65;;;3.65;;
81934;SDS011;71405;47.674;-2.050;2024-03-08T09:07:26;8.63;;;3.92;;
81934;SDS011;71405;47.674;-2.050;2024-03-08T09:09:53;8.73;;;4.25;;
81934;SDS011;71405;47.674;-2.050;2024-03-08T09:12:22;8.95;;;4.07;;
81934;SDS011;71405;47.674;-2.050;2024-03-08T09:14:48;8.77;;;3.95;;
81934;SDS011;71405;47.674;-2.050;2024-03-08T09:17:14;6.65;;;3.30;;
81934;SDS011;71405;47.674;-2.050;2024-03-08T09:19:42;8.43;;;4.00;;
81934;SDS011;71405;47.674;-2.050;2024-03-08T09:22:08;8.20;;;4.05;;
81934;SDS011;71405;47.674;-2.050;2024-03-08T09:24:36;7.63;;;3.60;;
81934;SDS011;71405;47.674;-2.050;2024-03-08T09:27:01;8.40;;;4.03;;
81934;SDS011;71405;47.674;-2.050;2024-03-08T09:29:28;8.15;;;3.97;;
81934;SDS011;71405;47.674;-2.050;2024-03-08T09:31:54;7.68;;;3.40;;
81934;SDS011;71405;47.674;-2.050;2024-03-08T09:34:19;8.93;;;4.40;;
81934;SDS011;71405;47.674;-2.050;2024-03-08T09:36:45;8.27;;;3.88;;
81934;SDS011;71405;47.674;-2.050;2024-03-08T09:39:11;8.00;;;3.58;;
81934;SDS011;71405;47.674;-2.050;2024-03-08T09:41:42;7.03;;;3.45;;
81934;SDS011;71405;47.674;-2.050;2024-03-08T09:44:08;8.75;;;3.67;;
81934;SDS011;71405;47.674;-2.050;2024-03-08T09:46:34;7.30;;;3.28;;
81934;SDS011;71405;47.674;-2.050;2024-03-08T09:49:00;8.68;;;3.97;;
81934;SDS011;71405;47.674;-2.050;2024-03-08T09:51:29;7.47;;;3.50;;
81934;SDS011;71405;47.674;-2.050;2024-03-08T09:53:58;6.97;;;3.22;;
81934;SDS011;71405;47.674;-2.050;2024-03-08T09:56:24;7.93;;;3.40;;
81934;SDS011;71405;47.674;-2.050;2024-03-08T09:58:52;7.88;;;3.60;;
81934;SDS011;71405;47.674;-2.050;2024-03-08T10:01:37;6.85;;;3.28;;
81934;SDS011;71405;47.674;-2.050;2024-03-08T10:04:04;8.77;;;3.65;;
81934;SDS011;71405;47.674;-2.050;2024-03-08T10:06:30;7.43;;;3.50;;
81934;SDS011;71405;47.674;-2.050;2024-03-08T10:08:56;7.85;;;3.95;;
81934;SDS011;71405;47.674;-2.050;2024-03-08T10:11:22;6.80;;;3.20;;
81934;SDS011;71405;47.674;-2.050;2024-03-08T10:13:49;8.20;;;3.80;;
81934;SDS011;71405;47.674;-2.050;2024-03-08T10:16:15;7.35;;;3.50;;
81934;SDS011;71405;47.674;-2.050;2024-03-08T10:18:45;7.38;;;3.22;;
81934;SDS011;71405;47.674;-2.050;2024-03-08T10:21:11;7.15;;;3.50;;
81934;SDS011;71405;47.674;-2.050;2024-03-08T10:23:38;7.40;;;3.55;;
81934;SDS011;71405;47.674;-2.050;2024-03-08T10:26:14;6.82;;;3.17;;
81934;SDS011;71405;47.674;-2.050;2024-03-08T10:28:45;8.43;;;3.50;;
81934;SDS011;71405;47.674;-2.050;2024-03-08T10:31:17;6.43;;;3.17;;
81934;SDS011;71405;47.674;-2.050;2024-03-08T10:33:44;6.75;;;2.83;;
81934;SDS011;71405;47.674;-2.050;2024-03-08T10:36:10;7.13;;;3.28;;
81934;SDS011;71405;47.674;-2.050;2024-03-08T10:38:40;7.10;;;3.42;;
81934;SDS011;71405;47.674;-2.050;2024-03-08T10:41:08;6.68;;;3.22;;
81934;SDS011;71405;47.674;-2.050;2024-03-08T10:49:25;7.07;;;3.30;;
81934;SDS011;71405;47.674;-2.050;2024-03-08T10:51:55;6.05;;;3.17;;
81934;SDS011;71405;47.674;-2.050;2024-03-08T10:54:23;6.65;;;2.78;;
81934;SDS011;71405;47.674;-2.050;2024-03-08T10:56:51;5.85;;;3.03;;
81934;SDS011;71405;47.674;-2.050;2024-03-08T10:59:17;6.20;;;2.88;;
81934;SDS011;71405;47.674;-2.050;2024-03-08T11:01:44;7.45;;;3.20;;
81934;SDS011;71405;47.674;-2.050;2024-03-08T11:04:10;7.72;;;3.60;;
81934;SDS011;71405;47.674;-2.050;2024-03-08T11:09:02;6.47;;;2.97;;
81934;SDS011;71405;47.674;-2.050;2024-03-08T11:11:31;6.45;;;2.67;;
81934;SDS011;71405;47.674;-2.050;2024-03-08T11:13:59;7.45;;;3.40;;
81934;SDS011;71405;47.674;-2.050;2024-03-08T11:19:00;7.15;;;3.00;;
81934;SDS011;71405;47.674;-2.050;2024-03-08T11:21:43;7.07;;;3.05;;
81934;SDS011;71405;47.674;-2.050;2024-03-08T11:24:13;8.25;;;3.05;;
81934;SDS011;71405;47.674;-2.050;2024-03-08T11:26:41;6.53;;;3.22;;
81934;SDS011;71405;47.674;-2.050;2024-03-08T11:32:16;6.63;;;3.33;;
81934;SDS011;71405;47.674;-2.050;2024-03-08T11:34:47;6.82;;;2.90;;
81934;SDS011;71405;47.674;-2.050;2024-03-08T11:37:17;7.07;;;3.22;;
81934;SDS011;71405;47.674;-2.050;2024-03-08T11:39:46;7.80;;;3.20;;
81934;SDS011;71405;47.674;-2.050;2024-03-08T11:42:17;7.20;;;3.10;;
81934;SDS011;71405;47.674;-2.050;2024-03-08T11:44:47;7.15;;;3.00;;
81934;SDS011;71405;47.674;-2.050;2024-03-08T11:47:13;6.57;;;3.20;;
81934;SDS011;71405;47.674;-2.050;2024-03-08T11:49:40;6.78;;;3.10;;
81934;SDS011;71405;47.674;-2.050;2024-03-08T11:52:15;6.18;;;2.88;;
81934;SDS011;71405;47.674;-2.050;2024-03-08T11:54:43;6.47;;;2.72;;
81934;SDS011;71405;47.674;-2.050;2024-03-08T11:57:26;7.07;;;3.22;;
81934;SDS011;71405;47.674;-2.050;2024-03-08T11:59:53;6.70;;;2.95;;
81934;SDS011;71405;47.674;-2.050;2024-03-08T12:02:23;6.40;;;2.92;;
81934;SDS011;71405;47.674;-2.050;2024-03-08T12:04:56;6.45;;;2.97;;
81934;SDS011;71405;47.674;-2.050;2024-03-08T12:07:23;6.00;;;2.88;;
81934;SDS011;71405;47.674;-2.050;2024-03-08T12:12:47;7.32;;;3.30;;
81934;SDS011;71405;47.674;-2.050;2024-03-08T12:15:17;6.93;;;3.17;;
81934;SDS011;71405;47.674;-2.050;2024-03-08T12:17:44;7.35;;;3.15;;
81934;SDS011;71405;47.674;-2.050;2024-03-08T12:20:17;6.50;;;3.20;;
81934;SDS011;71405;47.674;-2.050;2024-03-08T12:22:46;5.88;;;2.90;;
81934;SDS011;71405;47.674;-2.050;2024-03-08T12:25:12;8.00;;;3.47;;
81934;SDS011;71405;47.674;-2.050;2024-03-08T12:27:38;6.45;;;2.97;;
81934;SDS011;71405;47.674;-2.050;2024-03-08T12:30:24;6.18;;;2.83;;
81934;SDS011;71405;47.674;-2.050;2024-03-08T12:32:56;5.13;;;2.42;;
81934;SDS011;71405;47.674;-2.050;2024-03-08T12:35:24;4.85;;;2.80;;
81934;SDS011;71405;47.674;-2.050;2024-03-08T12:37:55;5.85;;;2.50;;
81934;SDS011;71405;47.674;-2.050;2024-03-08T12:40:25;5.63;;;2.88;;
81934;SDS011;71405;47.674;-2.050;2024-03-08T12:42:53;6.18;;;2.55;;
81934;SDS011;71405;47.674;-2.050;2024-03-08T12:45:23;6.55;;;3.03;;
81934;SDS011;71405;47.674;-2.050;2024-03-08T12:47:52;6.45;;;2.90;;
81934;SDS011;71405;47.674;-2.050;2024-03-08T12:50:19;6.00;;;2.88;;
81934;SDS011;71405;47.674;-2.050;2024-03-08T12:52:45;6.40;;;3.00;;
81934;SDS011;71405;47.674;-2.050;2024-03-08T12:55:11;6.45;;;3.08;;
81934;SDS011;71405;47.674;-2.050;2024-03-08T12:57:37;6.60;;;2.97;;
81934;SDS011;71405;47.674;-2.050;2024-03-08T13:00:03;5.78;;;2.80;;
81934;SDS011;71405;47.674;-2.050;2024-03-08T13:02:30;5.65;;;2.67;;
81934;SDS011;71405;47.674;-2.050;2024-03-08T13:04:57;5.85;;;2.80;;
81934;SDS011;71405;47.674;-2.050;2024-03-08T13:07:23;5.82;;;2.63;;
81934;SDS011;71405;47.674;-2.050;2024-03-08T13:09:53;5.28;;;2.47;;
81934;SDS011;71405;47.674;-2.050;2024-03-08T13:12:23;7.13;;;2.78;;
81934;SDS011;71405;47.674;-2.050;2024-03-08T13:14:48;4.75;;;2.25;;
81934;SDS011;71405;47.674;-2.050;2024-03-08T13:17:14;5.32;;;2.70;;
81934;SDS011;71405;47.674;-2.050;2024-03-08T13:19:40;5.50;;;2.70;;
81934;SDS011;71405;47.674;-2.050;2024-03-08T13:22:10;6.93;;;2.78;;
81934;SDS011;71405;47.674;-2.050;2024-03-08T13:24:38;5.28;;;2.42;;
81934;SDS011;71405;47.674;-2.050;2024-03-08T13:27:06;6.38;;;2.42;;
81934;SDS011;71405;47.674;-2.050;2024-03-08T13:29:49;5.57;;;2.53;;
81934;SDS011;71405;47.674;-2.050;2024-03-08T13:32:15;6.90;;;3.30;;
81934;SDS011;71405;47.674;-2.050;2024-03-08T13:34:42;5.35;;;2.55;;
81934;SDS011;71405;47.674;-2.050;2024-03-08T13:37:09;5.57;;;2.58;;
81934;SDS011;71405;47.674;-2.050;2024-03-08T13:39:36;5.72;;;2.80;;
81934;SDS011;71405;47.674;-2.050;2024-03-08T13:42:08;5.13;;;2.30;;
81934;SDS011;71405;47.674;-2.050;2024-03-08T13:44:38;3.97;;;2.22;;
81934;SDS011;71405;47.674;-2.050;2024-03-08T13:47:08;6.28;;;2.90;;
81934;SDS011;71405;47.674;-2.050;2024-03-08T13:49:33;6.38;;;2.67;;
81934;SDS011;71405;47.674;-2.050;2024-03-08T13:51:59;7.32;;;2.78;;
81934;SDS011;71405;47.674;-2.050;2024-03-08T13:54:25;6.28;;;2.83;;
81934;SDS011;71405;47.674;-2.050;2024-03-08T13:56:52;4.78;;;2.60;;
81934;SDS011;71405;47.674;-2.050;2024-03-08T13:59:19;5.65;;;2.47;;
81934;SDS011;71405;47.674;-2.050;2024-03-08T14:01:47;6.30;;;2.83;;
81934;SDS011;71405;47.674;-2.050;2024-03-08T14:04:16;5.53;;;2.58;;
81934;SDS011;71405;47.674;-2.050;2024-03-08T14:06:42;5.30;;;2.40;;
81934;SDS011;71405;47.674;-2.050;2024-03-08T14:09:10;5.13;;;2.40;;
81934;SDS011;71405;47.674;-2.050;2024-03-08T14:11:42;5.50;;;2.40;;
81934;SDS011;71405;47.674;-2.050;2024-03-08T14:14:09;5.88;;;2.47;;
81934;SDS011;71405;47.674;-2.050;2024-03-08T14:16:37;5.50;;;2.60;;
81934;SDS011;71405;47.674;-2.050;2024-03-08T14:19:04;5.38;;;2.85;;
81934;SDS011;71405;47.674;-2.050;2024-03-08T14:21:31;5.75;;;2.53;;
81934;SDS011;71405;47.674;-2.050;2024-03-08T14:23:57;5.32;;;2.40;;
81934;SDS011;71405;47.674;-2.050;2024-03-08T14:26:23;5.68;;;2.13;;
81934;SDS011;71405;47.674;-2.050;2024-03-08T14:28:49;5.47;;;2.35;;
81934;SDS011;71405;47.674;-2.050;2024-03-08T14:31:19;5.32;;;2.63;;
81934;SDS011;71405;47.674;-2.050;2024-03-08T14:33:45;6.03;;;2.40;;
81934;SDS011;71405;47.674;-2.050;2024-03-08T14:36:14;7.50;;;2.78;;
81934;SDS011;71405;47.674;-2.050;2024-03-08T14:38:42;6.05;;;2.42;;
81934;SDS011;71405;47.674;-2.050;2024-03-08T14:41:08;4.82;;;2.70;;
81934;SDS011;71405;47.674;-2.050;2024-03-08T14:43:34;5.78;;;2.60;;
81934;SDS011;71405;47.674;-2.050;2024-03-08T14:46:00;5.60;;;2.40;;
81934;SDS011;71405;47.674;-2.050;2024-03-08T14:48:25;5.72;;;2.63;;
81934;SDS011;71405;47.674;-2.050;2024-03-08T14:50:51;5.75;;;2.67;;
81934;SDS011;71405;47.674;-2.050;2024-03-08T14:53:17;4.95;;;2.33;;
81934;SDS011;71405;47.674;-2.050;2024-03-08T14:55:43;5.25;;;2.50;;